sensor_id;sensor_type;location;lat;lon;timestamp;P1;durP1;ratioP1;P2;durP2;ratioP2
39176;SDS011;24904;52.208;21.192;2023-08-30T00:02:06;27.90;;;23.70;;
39176;SDS011;24904;52.208;21.192;2023-08-30T00:07:09;34.60;;;26.00;;
39176;SDS011;24904;52.208;21.192;2023-08-30T00:12:12;32.90;;;25.60;;
39176;SDS011;24904;52.208;21.192;2023-08-30T00:17:15;31.90;;;25.80;;
39176;SDS011;24904;52.208;21.192;2023-08-30T00:22:18;32.30;;;27.80;;
39176;SDS011;24904;52.208;21.192;2023-08-30T00:27:22;34.10;;;28.10;;
39176;SDS011;24904;52.208;21.192;2023-08-30T00:32:26;34.20;;;28.30;;
39176;SDS011;24904;52.208;21.192;2023-08-30T00:37:28;36.60;;;29.10;;
39176;SDS011;24904;52.208;21.192;2023-08-30T00:42:31;36.90;;;28.50;;
39176;SDS011;24904;52.208;21.192;2023-08-30T00:47:34;41.00;;;29.80;;
39176;SDS011;24904;52.208;21.192;2023-08-30T00:52:38;38.60;;;30.10;;
39176;SDS011;24904;52.208;21.192;2023-08-30T00:57:41;36.70;;;27.70;;
39176;SDS011;24904;52.208;21.192;2023-08-30T01:02:44;38.90;;;28.30;;
39176;SDS011;24904;52.208;21.192;2023-08-30T01:07:47;37.00;;;29.90;;
39176;SDS011;24904;52.208;21.192;2023-08-30T01:12:51;35.50;;;28.90;;
39176;SDS011;24904;52.208;21.192;2023-08-30T01:18:00;42.70;;;31.50;;
39176;SDS011;24904;52.208;21.192;2023-08-30T01:23:07;38.00;;;30.30;;
39176;SDS011;24904;52.208;21.192;2023-08-30T01:28:19;41.90;;;29.10;;
39176;SDS011;24904;52.208;21.192;2023-08-30T01:44:27;39.40;;;30.00;;
39176;SDS011;24904;52.208;21.192;2023-08-30T01:49:31;46.50;;;30.90;;
39176;SDS011;24904;52.208;21.192;2023-08-30T01:54:38;43.90;;;29.50;;
39176;SDS011;24904;52.208;21.192;2023-08-30T01:59:45;43.90;;;32.00;;
39176;SDS011;24904;52.208;21.192;2023-08-30T02:04:48;57.80;;;32.70;;
39176;SDS011;24904;52.208;21.192;2023-08-30T02:09:53;50.80;;;31.20;;
39176;SDS011;24904;52.208;21.192;2023-08-30T02:15:02;53.20;;;33.80;;
39176;SDS011;24904;52.208;21.192;2023-08-30T02:20:08;53.90;;;30.90;;
39176;SDS011;24904;52.208;21.192;2023-08-30T02:25:12;43.70;;;29.30;;
39176;SDS011;24904;52.208;21.192;2023-08-30T02:30:15;41.20;;;26.80;;
39176;SDS011;24904;52.208;21.192;2023-08-30T02:35:18;34.80;;;26.30;;
39176;SDS011;24904;52.208;21.192;2023-08-30T02:40:22;39.10;;;26.40;;
39176;SDS011;24904;52.208;21.192;2023-08-30T02:45:25;42.30;;;28.30;;
39176;SDS011;24904;52.208;21.192;2023-08-30T02:50:28;43.80;;;27.10;;
39176;SDS011;24904;52.208;21.192;2023-08-30T02:55:31;43.60;;;27.80;;
39176;SDS011;24904;52.208;21.192;2023-08-30T03:00:34;42.00;;;28.90;;
39176;SDS011;24904;52.208;21.192;2023-08-30T03:05:37;39.10;;;26.60;;
39176;SDS011;24904;52.208;21.192;2023-08-30T03:10:41;39.30;;;26.50;;
39176;SDS011;24904;52.208;21.192;2023-08-30T03:15:45;40.80;;;26.70;;
39176;SDS011;24904;52.208;21.192;2023-08-30T03:20:48;38.90;;;25.20;;
39176;SDS011;24904;52.208;21.192;2023-08-30T03:26:06;35.30;;;24.20;;
39176;SDS011;24904;52.208;21.192;2023-08-30T03:31:14;38.00;;;26.10;;
39176;SDS011;24904;52.208;21.192;2023-08-30T03:36:19;36.60;;;25.00;;
39176;SDS011;24904;52.208;21.192;2023-08-30T03:41:22;33.20;;;24.10;;
39176;SDS011;24904;52.208;21.192;2023-08-30T03:46:25;38.10;;;24.90;;
39176;SDS011;24904;52.208;21.192;2023-08-30T03:51:28;38.00;;;25.60;;
39176;SDS011;24904;52.208;21.192;2023-08-30T03:56:31;35.00;;;24.10;;
39176;SDS011;24904;52.208;21.192;2023-08-30T04:01:34;39.40;;;26.60;;
39176;SDS011;24904;52.208;21.192;2023-08-30T04:06:37;39.50;;;26.50;;
39176;SDS011;24904;52.208;21.192;2023-08-30T04:11:40;35.80;;;25.20;;
39176;SDS011;24904;52.208;21.192;2023-08-30T04:16:43;43.00;;;24.60;;
39176;SDS011;24904;52.208;21.192;2023-08-30T04:21:46;40.00;;;27.30;;
39176;SDS011;24904;52.208;21.192;2023-08-30T04:26:49;43.10;;;27.30;;
39176;SDS011;24904;52.208;21.192;2023-08-30T04:31:54;45.40;;;27.10;;
39176;SDS011;24904;52.208;21.192;2023-08-30T04:36:57;37.40;;;26.70;;
39176;SDS011;24904;52.208;21.192;2023-08-30T04:42:00;39.60;;;27.40;;
39176;SDS011;24904;52.208;21.192;2023-08-30T04:47:04;45.30;;;28.40;;
39176;SDS011;24904;52.208;21.192;2023-08-30T04:52:09;42.80;;;28.30;;
39176;SDS011;24904;52.208;21.192;2023-08-30T04:57:12;40.90;;;28.00;;
39176;SDS011;24904;52.208;21.192;2023-08-30T05:02:17;45.70;;;26.60;;
39176;SDS011;24904;52.208;21.192;2023-08-30T05:07:35;46.00;;;29.10;;
39176;SDS011;24904;52.208;21.192;2023-08-30T05:12:39;44.70;;;28.70;;
39176;SDS011;24904;52.208;21.192;2023-08-30T05:17:43;42.80;;;27.60;;
39176;SDS011;24904;52.208;21.192;2023-08-30T05:22:47;47.90;;;29.00;;
39176;SDS011;24904;52.208;21.192;2023-08-30T05:27:50;43.20;;;30.40;;
39176;SDS011;24904;52.208;21.192;2023-08-30T05:32:54;49.90;;;30.30;;
39176;SDS011;24904;52.208;21.192;2023-08-30T05:38:35;47.30;;;30.00;;
39176;SDS011;24904;52.208;21.192;2023-08-30T05:44:05;47.40;;;29.50;;
39176;SDS011;24904;52.208;21.192;2023-08-30T05:49:08;45.20;;;29.80;;
39176;SDS011;24904;52.208;21.192;2023-08-30T05:54:12;44.30;;;30.50;;
39176;SDS011;24904;52.208;21.192;2023-08-30T05:59:15;47.40;;;31.50;;
39176;SDS011;24904;52.208;21.192;2023-08-30T06:04:18;51.40;;;31.90;;
39176;SDS011;24904;52.208;21.192;2023-08-30T06:09:21;42.90;;;30.40;;
39176;SDS011;24904;52.208;21.192;2023-08-30T06:14:24;48.00;;;30.60;;
39176;SDS011;24904;52.208;21.192;2023-08-30T06:19:27;48.40;;;30.90;;
39176;SDS011;24904;52.208;21.192;2023-08-30T06:24:30;43.20;;;30.30;;
39176;SDS011;24904;52.208;21.192;2023-08-30T06:29:33;44.70;;;30.20;;
39176;SDS011;24904;52.208;21.192;2023-08-30T06:34:37;48.10;;;29.30;;
39176;SDS011;24904;52.208;21.192;2023-08-30T06:39:40;43.70;;;29.90;;
39176;SDS011;24904;52.208;21.192;2023-08-30T06:44:43;41.30;;;26.70;;
39176;SDS011;24904;52.208;21.192;2023-08-30T06:49:46;37.20;;;27.30;;
39176;SDS011;24904;52.208;21.192;2023-08-30T06:54:49;40.40;;;26.00;;
39176;SDS011;24904;52.208;21.192;2023-08-30T06:59:53;41.60;;;27.60;;
39176;SDS011;24904;52.208;21.192;2023-08-30T07:04:56;35.00;;;25.10;;
39176;SDS011;24904;52.208;21.192;2023-08-30T07:09:59;34.40;;;24.40;;
39176;SDS011;24904;52.208;21.192;2023-08-30T07:15:02;31.10;;;23.40;;
39176;SDS011;24904;52.208;21.192;2023-08-30T07:20:07;33.10;;;24.30;;
39176;SDS011;24904;52.208;21.192;2023-08-30T07:25:11;35.80;;;25.30;;
39176;SDS011;24904;52.208;21.192;2023-08-30T07:30:15;35.30;;;24.20;;
39176;SDS011;24904;52.208;21.192;2023-08-30T07:35:18;41.00;;;26.90;;
39176;SDS011;24904;52.208;21.192;2023-08-30T07:40:21;40.90;;;27.50;;
39176;SDS011;24904;52.208;21.192;2023-08-30T07:45:27;46.10;;;27.90;;
39176;SDS011;24904;52.208;21.192;2023-08-30T07:50:30;46.60;;;27.60;;
39176;SDS011;24904;52.208;21.192;2023-08-30T07:55:33;46.60;;;29.50;;
39176;SDS011;24904;52.208;21.192;2023-08-30T08:00:36;48.80;;;29.50;;
39176;SDS011;24904;52.208;21.192;2023-08-30T08:05:40;46.30;;;27.60;;
39176;SDS011;24904;52.208;21.192;2023-08-30T08:10:43;42.00;;;26.90;;
39176;SDS011;24904;52.208;21.192;2023-08-30T08:15:46;41.10;;;26.70;;
39176;SDS011;24904;52.208;21.192;2023-08-30T08:20:49;41.10;;;26.00;;
39176;SDS011;24904;52.208;21.192;2023-08-30T08:25:57;41.70;;;25.60;;
39176;SDS011;24904;52.208;21.192;2023-08-30T08:31:00;41.40;;;26.40;;
39176;SDS011;24904;52.208;21.192;2023-08-30T08:36:04;41.40;;;26.30;;
39176;SDS011;24904;52.208;21.192;2023-08-30T08:41:07;40.50;;;25.30;;
39176;SDS011;24904;52.208;21.192;2023-08-30T08:46:13;39.50;;;24.50;;
39176;SDS011;24904;52.208;21.192;2023-08-30T08:51:19;35.90;;;22.80;;
39176;SDS011;24904;52.208;21.192;2023-08-30T08:56:24;31.10;;;21.80;;
39176;SDS011;24904;52.208;21.192;2023-08-30T09:01:28;32.70;;;23.00;;
39176;SDS011;24904;52.208;21.192;2023-08-30T09:06:32;30.20;;;21.20;;
39176;SDS011;24904;52.208;21.192;2023-08-30T09:11:42;25.20;;;19.30;;
39176;SDS011;24904;52.208;21.192;2023-08-30T09:16:54;25.70;;;17.80;;
39176;SDS011;24904;52.208;21.192;2023-08-30T09:21:58;24.50;;;17.40;;
39176;SDS011;24904;52.208;21.192;2023-08-30T09:27:01;26.80;;;16.40;;
39176;SDS011;24904;52.208;21.192;2023-08-30T09:32:07;24.90;;;15.90;;
39176;SDS011;24904;52.208;21.192;2023-08-30T09:37:19;21.70;;;14.40;;
39176;SDS011;24904;52.208;21.192;2023-08-30T09:42:22;20.10;;;14.40;;
39176;SDS011;24904;52.208;21.192;2023-08-30T09:47:26;14.60;;;10.50;;
39176;SDS011;24904;52.208;21.192;2023-08-30T09:52:29;14.90;;;8.60;;
39176;SDS011;24904;52.208;21.192;2023-08-30T09:57:34;10.00;;;7.90;;
39176;SDS011;24904;52.208;21.192;2023-08-30T10:02:37;15.10;;;7.70;;
39176;SDS011;24904;52.208;21.192;2023-08-30T10:07:42;10.90;;;6.60;;
39176;SDS011;24904;52.208;21.192;2023-08-30T10:12:46;13.10;;;6.90;;
39176;SDS011;24904;52.208;21.192;2023-08-30T10:17:49;7.80;;;6.10;;
39176;SDS011;24904;52.208;21.192;2023-08-30T10:22:55;15.10;;;6.60;;
39176;SDS011;24904;52.208;21.192;2023-08-30T10:28:00;10.60;;;6.10;;
39176;SDS011;24904;52.208;21.192;2023-08-30T10:33:12;7.90;;;5.90;;
39176;SDS011;24904;52.208;21.192;2023-08-30T10:38:24;9.20;;;5.70;;
39176;SDS011;24904;52.208;21.192;2023-08-30T10:43:29;8.70;;;7.00;;
39176;SDS011;24904;52.208;21.192;2023-08-30T10:48:36;7.10;;;5.80;;
39176;SDS011;24904;52.208;21.192;2023-08-30T10:53:40;10.60;;;6.60;;
39176;SDS011;24904;52.208;21.192;2023-08-30T10:58:43;5.70;;;4.50;;
39176;SDS011;24904;52.208;21.192;2023-08-30T11:03:46;5.90;;;4.50;;
39176;SDS011;24904;52.208;21.192;2023-08-30T11:08:51;5.20;;;4.20;;
39176;SDS011;24904;52.208;21.192;2023-08-30T11:13:54;7.00;;;4.70;;
39176;SDS011;24904;52.208;21.192;2023-08-30T11:19:05;8.10;;;4.80;;
39176;SDS011;24904;52.208;21.192;2023-08-30T11:24:09;8.90;;;6.40;;
39176;SDS011;24904;52.208;21.192;2023-08-30T11:29:13;9.70;;;6.10;;
39176;SDS011;24904;52.208;21.192;2023-08-30T11:34:17;8.60;;;5.80;;
39176;SDS011;24904;52.208;21.192;2023-08-30T11:39:23;9.40;;;6.60;;
39176;SDS011;24904;52.208;21.192;2023-08-30T11:44:29;9.50;;;7.00;;
39176;SDS011;24904;52.208;21.192;2023-08-30T11:49:33;8.50;;;6.40;;
39176;SDS011;24904;52.208;21.192;2023-08-30T11:54:36;10.70;;;6.90;;
39176;SDS011;24904;52.208;21.192;2023-08-30T11:59:39;11.40;;;7.50;;
39176;SDS011;24904;52.208;21.192;2023-08-30T12:04:43;10.30;;;6.90;;
39176;SDS011;24904;52.208;21.192;2023-08-30T12:09:46;8.90;;;6.10;;
39176;SDS011;24904;52.208;21.192;2023-08-30T12:14:55;11.30;;;6.80;;
39176;SDS011;24904;52.208;21.192;2023-08-30T12:19:58;8.40;;;5.90;;
39176;SDS011;24904;52.208;21.192;2023-08-30T12:25:01;10.00;;;5.30;;
39176;SDS011;24904;52.208;21.192;2023-08-30T12:30:06;10.90;;;4.70;;
39176;SDS011;24904;52.208;21.192;2023-08-30T12:35:10;11.60;;;5.00;;
39176;SDS011;24904;52.208;21.192;2023-08-30T12:40:13;6.40;;;4.60;;
39176;SDS011;24904;52.208;21.192;2023-08-30T12:45:16;6.40;;;4.60;;
39176;SDS011;24904;52.208;21.192;2023-08-30T12:50:19;5.60;;;4.10;;
39176;SDS011;24904;52.208;21.192;2023-08-30T12:55:23;5.20;;;4.40;;
39176;SDS011;24904;52.208;21.192;2023-08-30T13:00:26;5.70;;;3.80;;
39176;SDS011;24904;52.208;21.192;2023-08-30T13:05:29;4.30;;;3.50;;
39176;SDS011;24904;52.208;21.192;2023-08-30T13:10:33;5.70;;;4.10;;
39176;SDS011;24904;52.208;21.192;2023-08-30T13:15:36;5.20;;;4.30;;
39176;SDS011;24904;52.208;21.192;2023-08-30T13:20:39;7.70;;;6.10;;
39176;SDS011;24904;52.208;21.192;2023-08-30T13:25:42;11.70;;;6.50;;
39176;SDS011;24904;52.208;21.192;2023-08-30T13:30:45;8.10;;;6.60;;
39176;SDS011;24904;52.208;21.192;2023-08-30T13:35:50;11.80;;;6.90;;
39176;SDS011;24904;52.208;21.192;2023-08-30T13:40:58;11.10;;;8.60;;
39176;SDS011;24904;52.208;21.192;2023-08-30T13:46:01;12.00;;;9.40;;
39176;SDS011;24904;52.208;21.192;2023-08-30T13:51:05;12.60;;;10.30;;
39176;SDS011;24904;52.208;21.192;2023-08-30T13:56:08;12.30;;;8.20;;
39176;SDS011;24904;52.208;21.192;2023-08-30T14:01:11;9.30;;;7.40;;
39176;SDS011;24904;52.208;21.192;2023-08-30T14:06:14;12.50;;;9.70;;
39176;SDS011;24904;52.208;21.192;2023-08-30T14:11:18;12.60;;;8.80;;
39176;SDS011;24904;52.208;21.192;2023-08-30T14:16:21;13.30;;;8.30;;
39176;SDS011;24904;52.208;21.192;2023-08-30T14:21:24;11.40;;;9.00;;
39176;SDS011;24904;52.208;21.192;2023-08-30T14:26:28;11.70;;;8.10;;
39176;SDS011;24904;52.208;21.192;2023-08-30T14:31:32;14.40;;;8.00;;
39176;SDS011;24904;52.208;21.192;2023-08-30T14:36:35;13.40;;;8.50;;
39176;SDS011;24904;52.208;21.192;2023-08-30T14:41:38;10.20;;;7.30;;
39176;SDS011;24904;52.208;21.192;2023-08-30T14:46:41;11.60;;;8.20;;
39176;SDS011;24904;52.208;21.192;2023-08-30T14:51:44;9.80;;;7.40;;
39176;SDS011;24904;52.208;21.192;2023-08-30T14:56:57;9.40;;;7.10;;
39176;SDS011;24904;52.208;21.192;2023-08-30T15:02:00;8.20;;;6.00;;
39176;SDS011;24904;52.208;21.192;2023-08-30T15:07:03;8.90;;;6.20;;
39176;SDS011;24904;52.208;21.192;2023-08-30T15:12:06;5.90;;;5.30;;
39176;SDS011;24904;52.208;21.192;2023-08-30T15:17:09;7.90;;;5.20;;
39176;SDS011;24904;52.208;21.192;2023-08-30T15:22:12;7.50;;;5.90;;
39176;SDS011;24904;52.208;21.192;2023-08-30T15:27:15;7.80;;;6.00;;
39176;SDS011;24904;52.208;21.192;2023-08-30T15:32:18;10.20;;;6.40;;
39176;SDS011;24904;52.208;21.192;2023-08-30T15:37:21;10.70;;;7.00;;
39176;SDS011;24904;52.208;21.192;2023-08-30T15:42:24;9.90;;;6.90;;
39176;SDS011;24904;52.208;21.192;2023-08-30T15:47:27;10.70;;;6.30;;
39176;SDS011;24904;52.208;21.192;2023-08-30T15:52:31;14.40;;;7.20;;
39176;SDS011;24904;52.208;21.192;2023-08-30T15:57:33;7.30;;;5.80;;
39176;SDS011;24904;52.208;21.192;2023-08-30T16:02:36;9.50;;;6.30;;
39176;SDS011;24904;52.208;21.192;2023-08-30T16:07:39;8.30;;;6.80;;
39176;SDS011;24904;52.208;21.192;2023-08-30T16:12:42;8.10;;;6.10;;
39176;SDS011;24904;52.208;21.192;2023-08-30T16:17:45;8.20;;;6.60;;
39176;SDS011;24904;52.208;21.192;2023-08-30T16:22:49;8.80;;;6.30;;
39176;SDS011;24904;52.208;21.192;2023-08-30T16:27:53;10.50;;;6.60;;
39176;SDS011;24904;52.208;21.192;2023-08-30T16:32:57;8.70;;;5.90;;
39176;SDS011;24904;52.208;21.192;2023-08-30T16:38:00;6.60;;;5.70;;
39176;SDS011;24904;52.208;21.192;2023-08-30T16:43:04;7.90;;;5.90;;
39176;SDS011;24904;52.208;21.192;2023-08-30T16:48:07;7.80;;;5.90;;
39176;SDS011;24904;52.208;21.192;2023-08-30T17:01:21;7.50;;;4.10;;
39176;SDS011;24904;52.208;21.192;2023-08-30T17:06:26;5.60;;;4.00;;
39176;SDS011;24904;52.208;21.192;2023-08-30T17:11:32;4.90;;;3.90;;
39176;SDS011;24904;52.208;21.192;2023-08-30T17:16:37;5.60;;;4.10;;
39176;SDS011;24904;52.208;21.192;2023-08-30T17:21:42;7.00;;;4.90;;
39176;SDS011;24904;52.208;21.192;2023-08-30T17:26:47;5.70;;;4.30;;
39176;SDS011;24904;52.208;21.192;2023-08-30T17:31:52;8.60;;;4.80;;
39176;SDS011;24904;52.208;21.192;2023-08-30T17:36:57;7.50;;;4.90;;
39176;SDS011;24904;52.208;21.192;2023-08-30T17:42:06;11.00;;;4.30;;
39176;SDS011;24904;52.208;21.192;2023-08-30T17:47:11;6.90;;;4.60;;
39176;SDS011;24904;52.208;21.192;2023-08-30T17:52:16;7.60;;;4.70;;
39176;SDS011;24904;52.208;21.192;2023-08-30T17:57:21;9.70;;;5.10;;
39176;SDS011;24904;52.208;21.192;2023-08-30T18:02:26;5.50;;;4.70;;
39176;SDS011;24904;52.208;21.192;2023-08-30T18:07:31;8.70;;;4.90;;
39176;SDS011;24904;52.208;21.192;2023-08-30T18:12:37;7.70;;;5.90;;
39176;SDS011;24904;52.208;21.192;2023-08-30T18:17:42;8.80;;;5.50;;
39176;SDS011;24904;52.208;21.192;2023-08-30T18:22:47;11.50;;;5.90;;
39176;SDS011;24904;52.208;21.192;2023-08-30T18:27:52;12.40;;;5.50;;
39176;SDS011;24904;52.208;21.192;2023-08-30T18:32:57;8.30;;;5.50;;
39176;SDS011;24904;52.208;21.192;2023-08-30T18:38:02;9.90;;;6.40;;
39176;SDS011;24904;52.208;21.192;2023-08-30T18:43:09;9.30;;;6.00;;
39176;SDS011;24904;52.208;21.192;2023-08-30T18:48:14;10.40;;;7.00;;
39176;SDS011;24904;52.208;21.192;2023-08-30T18:53:19;10.40;;;6.70;;
39176;SDS011;24904;52.208;21.192;2023-08-30T18:58:24;13.50;;;6.90;;
39176;SDS011;24904;52.208;21.192;2023-08-30T19:03:29;10.00;;;6.80;;
39176;SDS011;24904;52.208;21.192;2023-08-30T19:08:35;14.50;;;7.70;;
39176;SDS011;24904;52.208;21.192;2023-08-30T19:13:40;12.80;;;7.60;;
39176;SDS011;24904;52.208;21.192;2023-08-30T19:18:45;12.20;;;7.00;;
39176;SDS011;24904;52.208;21.192;2023-08-30T19:23:50;11.50;;;8.10;;
39176;SDS011;24904;52.208;21.192;2023-08-30T19:28:55;14.10;;;9.40;;
39176;SDS011;24904;52.208;21.192;2023-08-30T19:34:00;16.20;;;9.00;;
39176;SDS011;24904;52.208;21.192;2023-08-30T19:39:05;13.30;;;9.00;;
39176;SDS011;24904;52.208;21.192;2023-08-30T19:44:11;16.70;;;9.40;;
39176;SDS011;24904;52.208;21.192;2023-08-30T19:49:16;17.80;;;9.00;;
39176;SDS011;24904;52.208;21.192;2023-08-30T19:54:21;14.50;;;8.40;;
39176;SDS011;24904;52.208;21.192;2023-08-30T19:59:26;12.80;;;8.80;;
39176;SDS011;24904;52.208;21.192;2023-08-30T20:04:32;15.60;;;8.90;;
39176;SDS011;24904;52.208;21.192;2023-08-30T20:09:36;15.00;;;8.30;;
39176;SDS011;24904;52.208;21.192;2023-08-30T20:14:42;14.50;;;8.40;;
39176;SDS011;24904;52.208;21.192;2023-08-30T20:19:47;15.60;;;8.70;;
39176;SDS011;24904;52.208;21.192;2023-08-30T20:24:53;12.40;;;9.20;;
39176;SDS011;24904;52.208;21.192;2023-08-30T20:30:00;13.60;;;9.70;;
39176;SDS011;24904;52.208;21.192;2023-08-30T20:35:06;13.10;;;9.50;;
39176;SDS011;24904;52.208;21.192;2023-08-30T20:40:12;15.20;;;9.50;;
39176;SDS011;24904;52.208;21.192;2023-08-30T20:45:18;13.70;;;8.80;;
39176;SDS011;24904;52.208;21.192;2023-08-30T20:50:23;14.70;;;8.60;;
39176;SDS011;24904;52.208;21.192;2023-08-30T20:55:28;13.10;;;8.70;;
39176;SDS011;24904;52.208;21.192;2023-08-30T21:00:33;15.60;;;9.60;;
39176;SDS011;24904;52.208;21.192;2023-08-30T21:05:38;14.30;;;8.70;;
39176;SDS011;24904;52.208;21.192;2023-08-30T21:10:43;18.50;;;9.80;;
39176;SDS011;24904;52.208;21.192;2023-08-30T21:15:48;15.00;;;8.30;;
39176;SDS011;24904;52.208;21.192;2023-08-30T21:20:56;13.80;;;7.90;;
39176;SDS011;24904;52.208;21.192;2023-08-30T21:26:02;13.20;;;8.60;;
39176;SDS011;24904;52.208;21.192;2023-08-30T21:31:08;13.60;;;8.30;;
39176;SDS011;24904;52.208;21.192;2023-08-30T21:36:13;12.70;;;8.20;;
39176;SDS011;24904;52.208;21.192;2023-08-30T21:41:18;16.70;;;8.30;;
39176;SDS011;24904;52.208;21.192;2023-08-30T21:46:23;12.00;;;8.60;;
39176;SDS011;24904;52.208;21.192;2023-08-30T21:51:28;14.00;;;8.60;;
39176;SDS011;24904;52.208;21.192;2023-08-30T21:56:36;12.00;;;7.60;;
39176;SDS011;24904;52.208;21.192;2023-08-30T22:01:41;15.90;;;8.20;;
39176;SDS011;24904;52.208;21.192;2023-08-30T22:06:46;12.70;;;7.80;;
39176;SDS011;24904;52.208;21.192;2023-08-30T22:11:51;12.40;;;8.80;;
39176;SDS011;24904;52.208;21.192;2023-08-30T22:16:56;14.10;;;8.50;;
39176;SDS011;24904;52.208;21.192;2023-08-30T22:22:03;10.70;;;7.90;;
39176;SDS011;24904;52.208;21.192;2023-08-30T22:27:10;11.30;;;8.40;;
39176;SDS011;24904;52.208;21.192;2023-08-30T22:32:15;11.20;;;8.80;;
39176;SDS011;24904;52.208;21.192;2023-08-30T22:37:21;16.20;;;9.40;;
39176;SDS011;24904;52.208;21.192;2023-08-30T22:42:26;12.10;;;8.80;;
39176;SDS011;24904;52.208;21.192;2023-08-30T22:47:31;16.00;;;8.70;;
39176;SDS011;24904;52.208;21.192;2023-08-30T22:52:37;19.90;;;9.60;;
39176;SDS011;24904;52.208;21.192;2023-08-30T22:57:42;11.50;;;8.30;;
39176;SDS011;24904;52.208;21.192;2023-08-30T23:02:47;11.00;;;7.80;;
39176;SDS011;24904;52.208;21.192;2023-08-30T23:07:54;11.70;;;8.80;;
39176;SDS011;24904;52.208;21.192;2023-08-30T23:12:59;11.90;;;8.60;;
39176;SDS011;24904;52.208;21.192;2023-08-30T23:18:05;10.60;;;8.70;;
39176;SDS011;24904;52.208;21.192;2023-08-30T23:23:11;12.10;;;8.90;;
39176;SDS011;24904;52.208;21.192;2023-08-30T23:28:16;11.40;;;8.10;;
39176;SDS011;24904;52.208;21.192;2023-08-30T23:33:21;13.10;;;8.50;;
39176;SDS011;24904;52.208;21.192;2023-08-30T23:38:26;12.80;;;8.20;;
39176;SDS011;24904;52.208;21.192;2023-08-30T23:43:31;14.50;;;9.20;;
39176;SDS011;24904;52.208;21.192;2023-08-30T23:48:37;13.70;;;8.40;;
39176;SDS011;24904;52.208;21.192;2023-08-30T23:53:42;12.50;;;8.70;;
39176;SDS011;24904;52.208;21.192;2023-08-30T23:58:47;12.70;;;8.80;;
